Time;durP1;ratioP1;P1;durP2;ratioP2;P2;SDS_P1;SDS_P2;PMS_P1;PMS_P2;Temp;Humidity;BMP_temperature;BMP_pressure;BME280_temperature;BME280_humidity;BME280_pressure;Samples;Min_cycle;Max_cycle;Signal;HPM_P1;HPM_P2
2023/04/10 00:04:49;;;;;;;29.30;20.85;;;;;;;8.52;92.52;97915.94;10390911;28;20424;-52
2023/04/10 00:09:49;;;;;;;27.33;19.38;;;;;;;8.32;93.23;97868.34;10408331;28;20067;-52
2023/04/10 00:14:48;;;;;;;28.33;18.58;;;;;;;8.60;92.96;97897.94;10408331;28;20112;-52
2023/04/10 00:19:49;;;;;;;30.05;19.98;;;;;;;8.66;92.82;97902.28;10406598;28;20032;-52
2023/04/10 00:24:48;;;;;;;31.73;20.48;;;;;;;8.69;92.77;97891.94;10407560;28;20504;-51
2023/04/10 00:29:47;;;;;;;29.88;20.67;;;;;;;8.70;92.45;97894.56;10390433;28;20440;-51
2023/04/10 00:34:45;;;;;;;26.00;17.80;;;;;;;8.68;92.13;97882.47;10409759;28;20155;-52
2023/04/10 00:39:45;;;;;;;29.10;18.27;;;;;;;8.59;91.04;97882.38;10409555;28;20069;-49
2023/04/10 00:44:44;;;;;;;31.33;20.30;;;;;;;8.58;91.61;97875.50;10409769;28;20128;-50
2023/04/10 00:49:44;;;;;;;32.08;21.77;;;;;;;8.59;91.56;97878.06;10409267;28;20044;-52
2023/04/10 00:54:44;;;;;;;30.08;20.38;;;;;;;8.60;91.33;97873.75;10405580;28;20128;-52
2023/04/10 00:59:43;;;;;;;32.22;20.90;;;;;;;8.64;91.00;97876.38;10403539;28;20068;-52
2023/04/10 01:04:44;;;;;;;32.40;20.85;;;;;;;8.70;90.94;97873.00;10405345;28;20571;-51
2023/04/10 01:09:51;;;;;;;30.08;20.48;;;;;;;8.67;91.03;97867.81;10404963;28;20063;-52
2023/04/10 01:15:12;;;;;;;31.70;21.63;;;;;;;8.61;89.97;97865.16;10403271;28;20060;-51
2023/04/10 01:20:16;;;;;;;35.72;23.90;;;;;;;8.57;90.25;97858.22;10406205;28;20063;-51
2023/04/10 01:25:48;;;;;;;32.38;21.77;;;;;;;8.44;91.01;97854.66;10405019;28;20111;-52
2023/04/10 01:30:49;;;;;;;39.70;25.98;;;;;;;8.45;90.98;97846.03;10404681;28;20060;-52
2023/04/10 01:35:52;;;;;;;39.20;25.38;;;;;;;8.45;90.90;97852.06;10406433;28;20076;-51
2023/04/10 01:40:56;;;;;;;37.30;22.67;;;;;;;8.38;90.79;97850.28;10409006;28;20056;-50
2023/04/10 01:45:57;;;;;;;34.78;21.05;;;;;;;8.26;90.68;97850.19;10407738;28;20060;-52
2023/04/10 01:50:58;;;;;;;35.58;19.80;;;;;;;8.23;90.70;97851.03;10407192;28;20470;-52
2023/04/10 01:55:57;;;;;;;35.65;20.85;;;;;;;8.19;91.30;97851.84;10409023;28;20478;-49
2023/04/10 02:00:56;;;;;;;36.00;23.08;;;;;;;8.13;91.26;97843.16;10408461;28;20043;-51
2023/04/10 02:06:16;;;;;;;28.92;18.00;;;;;;;8.06;91.29;97842.22;10409415;28;20124;-50
2023/04/10 02:11:30;;;;;;;22.92;14.70;;;;;;;7.97;91.04;97843.00;10409343;28;20071;-51
2023/04/10 02:16:31;;;;;;;24.50;16.88;;;;;;;7.93;91.40;97830.91;10408934;28;20060;-52
2023/04/10 02:21:32;;;;;;;26.52;16.65;;;;;;;7.79;91.24;97825.56;10409444;28;20521;-51
2023/04/10 02:26:49;;;;;;;27.65;18.13;;;;;;;7.76;91.51;97827.28;10410591;28;20063;-51
2023/04/10 02:31:49;;;;;;;28.30;17.80;;;;;;;7.66;91.86;97800.44;10406281;28;20060;-51
2023/04/10 02:36:48;;;;;;;26.35;17.85;;;;;;;7.79;91.58;97823.00;10406341;28;20052;-52
2023/04/10 02:41:47;;;;;;;23.77;16.35;;;;;;;7.87;91.36;97820.47;10397952;28;20138;-51
2023/04/10 02:46:49;;;;;;;26.33;16.85;;;;;;;7.92;91.17;97828.28;10399709;28;20401;-52
2023/04/10 02:51:49;;;;;;;27.38;18.00;;;;;;;7.92;91.11;97820.53;10397031;28;20685;-52
2023/04/10 02:56:48;;;;;;;28.15;18.10;;;;;;;7.98;91.47;97818.88;10397114;28;20123;-50
2023/04/10 03:01:49;;;;;;;26.42;17.88;;;;;;;7.85;91.22;97792.06;10399750;28;20041;-52
2023/04/10 03:06:48;;;;;;;27.85;19.38;;;;;;;8.06;90.56;97821.53;10382209;28;20230;-50
2023/04/10 03:11:47;;;;;;;26.45;18.33;;;;;;;8.07;90.83;97826.72;10401851;28;20115;-50
2023/04/10 03:16:46;;;;;;;32.83;19.10;;;;;;;8.15;90.73;97834.56;10401850;28;20115;-51
2023/04/10 03:21:46;;;;;;;30.13;19.83;;;;;;;8.21;91.08;97836.34;10402009;28;20151;-51
2023/04/10 03:26:45;;;;;;;;;;;;;;;8.16;90.87;97838.88;10403910;28;20143;-52
2023/04/10 03:31:44;;;;;;;23.80;16.73;;;;;;;8.11;90.87;97834.50;10402224;28;20007;-52
2023/04/10 03:36:43;;;;;;;24.60;15.45;;;;;;;8.05;91.00;97831.00;10401280;28;20124;-52
2023/04/10 03:41:42;;;;;;;26.77;17.50;;;;;;;7.98;91.58;97839.56;10405804;28;20064;-49
2023/04/10 03:46:41;;;;;;;31.15;18.48;;;;;;;8.04;91.88;97846.53;10408911;28;20036;-49
2023/04/10 03:51:40;;;;;;;26.48;16.27;;;;;;;8.00;91.34;97827.53;10408456;28;20485;-53
2023/04/10 03:56:39;;;;;;;34.10;23.90;;;;;;;7.87;91.42;97825.66;10407083;28;20118;-52
2023/04/10 04:01:38;;;;;;;39.17;23.13;;;;;;;7.73;92.04;97848.75;10409965;28;20558;-50
2023/04/10 04:06:37;;;;;;;36.90;22.27;;;;;;;7.61;92.65;97833.97;10411040;28;20025;-53
2023/04/10 04:11:37;;;;;;;34.95;21.83;;;;;;;7.83;92.59;97866.09;10409339;28;20724;-50
2023/04/10 04:16:36;;;;;;;35.83;23.25;;;;;;;7.86;92.57;97855.78;10409661;28;20116;-52
2023/04/10 04:21:35;;;;;;;39.88;22.60;;;;;;;8.05;92.07;97872.38;10409253;28;20033;-52
2023/04/10 04:26:34;;;;;;;42.97;24.13;;;;;;;7.80;91.45;97817.00;10408514;28;20033;-51
2023/04/10 04:31:33;;;;;;;39.30;22.85;;;;;;;7.80;92.28;97866.09;10408822;28;20045;-50
2023/04/10 04:36:32;;;;;;;36.28;22.70;;;;;;;7.75;92.50;97866.84;10408927;28;20123;-52
2023/04/10 04:41:31;;;;;;;32.65;20.75;;;;;;;7.41;94.18;97867.31;10409341;28;20032;-50
2023/04/10 04:46:30;;;;;;;29.83;19.08;;;;;;;7.27;94.89;97879.13;10406690;28;20124;-51
2023/04/10 04:51:29;;;;;;;29.27;17.38;;;;;;;7.19;94.92;97883.28;10407453;28;20119;-50
2023/04/10 04:56:28;;;;;;;27.92;17.55;;;;;;;7.27;94.92;97878.28;10409482;28;20119;-51
2023/04/10 05:01:27;;;;;;;30.45;17.40;;;;;;;7.58;95.00;97875.25;10404704;28;20119;-50
2023/04/10 05:06:26;;;;;;;27.13;16.50;;;;;;;7.99;93.77;97876.59;10403485;28;20025;-51
2023/04/10 05:11:25;;;;;;;26.17;16.42;;;;;;;8.01;92.88;97859.41;10406279;28;20020;-52
2023/04/10 05:16:24;;;;;;;29.55;18.98;;;;;;;8.29;92.31;97888.97;10407620;28;20119;-52
2023/04/10 05:21:23;;;;;;;31.05;20.00;;;;;;;8.35;91.12;97883.03;10407536;28;20063;-52
2023/04/10 05:26:22;;;;;;;24.77;16.15;;;;;;;8.55;90.78;97878.88;10408077;28;20039;-50
2023/04/10 05:31:21;;;;;;;25.88;17.52;;;;;;;8.76;89.95;97877.34;10405329;28;21066;-50
2023/04/10 05:36:20;;;;;;;23.42;16.80;;;;;;;9.16;89.68;97896.66;10407843;28;20024;-52
2023/04/10 05:41:19;;;;;;;24.98;17.60;;;;;;;9.38;86.70;97889.91;10406681;28;20046;-51
2023/04/10 05:46:18;;;;;;;23.27;16.85;;;;;;;9.29;83.40;97884.66;10406709;28;20067;-52
2023/04/10 05:51:17;;;;;;;26.48;18.67;;;;;;;8.87;83.45;97892.09;10405929;28;20111;-52
2023/04/10 05:56:16;;;;;;;26.88;18.25;;;;;;;8.95;83.00;97894.78;10404847;28;20043;-51
2023/04/10 06:01:15;;;;;;;24.67;17.23;;;;;;;9.10;82.03;97899.19;10404101;28;20071;-52
2023/04/10 06:06:14;;;;;;;20.67;14.93;;;;;;;9.06;80.95;97897.41;10401594;28;20036;-50
2023/04/10 06:11:13;;;;;;;;;;;;;;;9.11;79.34;97891.44;10399594;28;20135;-51
2023/04/10 06:16:14;;;;;;;22.83;15.93;;;;;;;9.37;80.12;97893.34;10400063;28;19916;-49
2023/04/10 06:21:13;;;;;;;28.65;17.70;;;;;;;9.47;79.62;97896.88;10401445;28;20131;-51
2023/04/10 06:26:12;;;;;;;21.92;14.60;;;;;;;9.53;78.37;97895.16;10405480;28;20140;-52
2023/04/10 06:31:11;;;;;;;24.33;16.58;;;;;;;9.65;79.15;97852.91;10399126;28;20039;-52
2023/04/10 06:36:10;;;;;;;27.20;18.00;;;;;;;9.98;76.53;97872.06;10404152;28;20618;-51
2023/04/10 06:41:09;;;;;;;20.63;15.50;;;;;;;10.25;75.35;97891.13;10403891;28;20463;-52
2023/04/10 06:46:08;;;;;;;27.23;18.42;;;;;;;10.47;74.35;97892.91;10404801;28;20033;-50
2023/04/10 06:51:07;;;;;;;25.52;17.50;;;;;;;10.87;74.77;97887.78;10399950;28;20110;-52
2023/04/10 06:56:07;;;;;;;22.05;15.43;;;;;;;11.18;71.76;97895.56;10400292;28;20123;-51
2023/04/10 07:01:06;;;;;;;22.02;15.75;;;;;;;11.24;68.11;97903.31;10402753;28;20068;-52
2023/04/10 07:06:06;;;;;;;26.25;19.00;;;;;;;11.29;71.14;97882.53;10403268;28;20048;-51
2023/04/10 07:11:05;;;;;;;26.08;16.83;;;;;;;11.68;67.31;97898.03;10405717;28;20074;-52
2023/04/10 07:16:07;;;;;;;24.85;18.02;;;;;;;11.30;67.61;97894.66;10406781;28;20060;-52
2023/04/10 07:21:11;;;;;;;29.52;20.85;;;;;;;11.64;67.69;97900.63;10409024;28;20060;-52
2023/04/10 07:26:10;;;;;;;26.92;20.65;;;;;;;11.40;65.91;97907.63;10410879;28;20047;-52
2023/04/10 07:31:10;;;;;;;27.13;19.30;;;;;;;11.20;67.28;97836.69;10411204;28;20116;-52
2023/04/10 07:36:09;;;;;;;28.15;19.38;;;;;;;11.77;65.63;97889.34;10411718;28;20457;-52
2023/04/10 07:41:10;;;;;;;;;;;;;;;11.58;64.66;97896.31;10409586;28;20068;-51
2023/04/10 07:46:09;;;;;;;22.63;16.88;;;;;;;11.82;63.71;97887.56;10406083;28;19955;-51
2023/04/10 07:51:08;;;;;;;;;;;;;;;11.92;64.78;97884.94;10406745;28;20083;-52
2023/04/10 07:56:14;;;;;;;23.08;17.85;;;;;;;11.89;64.82;97884.06;10399333;28;19923;-52
2023/04/10 08:01:14;;;;;;;25.95;18.42;;;;;;;11.80;63.54;97884.13;10406894;28;20064;-52
2023/04/10 08:06:13;;;;;;;21.88;17.38;;;;;;;11.85;63.26;97877.19;10406693;28;20064;-53
2023/04/10 08:11:27;;;;;;;25.48;18.58;;;;;;;11.85;64.73;97881.50;10406792;28;20032;-51
2023/04/10 08:16:30;;;;;;;22.73;17.83;;;;;;;11.87;64.16;97880.63;10404493;28;20167;-52
2023/04/10 08:21:33;;;;;;;24.45;18.65;;;;;;;11.85;63.06;97878.91;10409683;28;20051;-52
2023/04/10 08:26:32;;;;;;;26.23;18.15;;;;;;;11.36;64.05;97876.44;10405474;28;20060;-51
2023/04/10 08:31:31;;;;;;;;;;;;;;;11.15;66.12;97880.84;10410498;28;20048;-52
2023/04/10 08:36:30;;;;;;;25.27;19.20;;;;;;;11.27;66.84;97872.16;10405456;28;20034;-52
2023/04/10 08:41:29;;;;;;;21.85;17.42;;;;;;;11.56;65.19;97863.41;10407343;28;20096;-52
2023/04/10 08:46:32;;;;;;;24.40;18.58;;;;;;;11.83;64.78;97850.31;10408332;28;20043;-52
2023/04/10 08:51:45;;;;;;;25.00;16.83;;;;;;;11.40;64.36;97819.28;10399702;28;20123;-51
2023/04/10 08:56:49;;;;;;;24.88;17.42;;;;;;;11.39;65.87;97861.72;10405368;28;20594;-52
2023/04/10 09:01:48;;;;;;;25.27;18.27;;;;;;;11.73;65.49;97855.56;10408562;28;20072;-52
2023/04/10 09:06:47;;;;;;;25.55;17.67;;;;;;;11.57;65.09;97859.94;10400998;28;20055;-52
2023/04/10 09:11:51;;;;;;;;;;;;;;;11.86;65.35;97846.84;10407270;28;20032;-51
2023/04/10 09:16:51;;;;;;;23.45;17.23;;;;;;;12.00;63.46;97834.63;10406661;28;20801;-52
2023/04/10 09:21:50;;;;;;;21.50;16.60;;;;;;;12.03;62.75;97810.34;10407263;28;20059;-52
2023/04/10 09:26:49;;;;;;;;;;;;;;;12.03;61.28;97834.59;10408985;28;20135;-52
2023/04/10 09:31:49;;;;;;;24.20;17.30;;;;;;;12.25;61.90;97824.94;10406941;28;19932;-52
2023/04/10 09:36:56;;;;;;;31.33;15.68;;;;;;;12.56;59.02;97824.75;10405260;28;20737;-51
2023/04/10 09:41:55;;;;;;;19.95;16.73;;;;;;;12.63;58.08;97810.81;10406154;28;20064;-52
2023/04/10 09:46:54;;;;;;;;;;;;;;;12.85;56.35;97810.63;10407011;28;20025;-51
2023/04/10 09:51:53;;;;;;;22.67;16.30;;;;;;;12.90;56.83;97809.69;10404934;28;20373;-52
2023/04/10 09:56:52;;;;;;;;;;;;;;;12.77;55.12;97802.03;10405386;28;20028;-53
2023/04/10 10:01:51;;;;;;;18.92;14.52;;;;;;;12.95;54.11;97786.19;10404898;28;19974;-52
2023/04/10 10:06:50;;;;;;;;;;;;;;;12.59;54.64;97782.22;10405542;28;20083;-49
2023/04/10 10:11:50;;;;;;;20.88;15.15;;;;;;;12.15;57.73;97786.84;10405686;28;19915;-52
2023/04/10 10:16:51;;;;;;;17.23;13.50;;;;;;;11.76;55.82;97773.22;10403221;28;20123;-52
2023/04/10 10:21:51;;;;;;;16.85;13.07;;;;;;;11.78;56.15;97750.69;10404408;28;20060;-51
2023/04/10 10:26:51;;;;;;;17.60;13.05;;;;;;;12.19;54.54;97757.34;10401358;28;20462;-52
2023/04/10 10:31:51;;;;;;;20.42;13.98;;;;;;;12.69;54.59;97748.25;10404536;28;20524;-50
2023/04/10 10:36:50;;;;;;;18.63;14.27;;;;;;;13.26;52.40;97739.84;10400813;28;20127;-52
2023/04/10 10:42:00;;;;;;;;;;;;;;;13.05;48.78;97740.97;10400279;28;20036;-51
2023/04/10 10:47:19;;;;;;;14.73;11.47;;;;;;;12.64;49.06;97734.41;10402250;28;20733;-52
2023/04/10 10:52:38;;;;;;;15.65;12.20;;;;;;;12.72;50.11;97726.56;10411691;28;20056;-52
2023/04/10 10:57:51;;;;;;;17.13;12.13;;;;;;;12.46;49.92;97718.97;10408544;28;20123;-52
2023/04/10 11:03:09;;;;;;;18.35;14.70;;;;;;;11.99;52.54;97707.19;10409426;28;20140;-52
2023/04/10 11:08:08;;;;;;;19.60;15.18;;;;;;;12.24;53.63;97711.31;10410506;28;20784;-52
2023/04/10 11:13:17;;;;;;;;;;;;;;;12.12;53.68;97711.44;10410522;28;20478;-52
2023/04/10 11:18:16;;;;;;;21.58;16.25;;;;;;;12.07;54.22;97721.88;10401898;28;20018;-51
2023/04/10 11:23:15;;;;;;;;;;;;;;;11.85;52.93;97731.56;10414125;28;20457;-52
2023/04/10 11:28:40;;;;;;;20.50;14.80;;;;;;;11.79;53.96;97739.41;10415361;28;20421;-52
2023/04/10 11:33:40;;;;;;;17.00;12.70;;;;;;;11.93;54.90;97746.25;10407037;28;20064;-50
2023/04/10 11:38:39;;;;;;;17.23;13.23;;;;;;;12.25;54.86;97733.88;10411643;28;20120;-51
2023/04/10 11:43:38;;;;;;;;;;;;;;;12.13;54.79;97749.56;10413136;28;20075;-51
2023/04/10 11:48:37;;;;;;;19.42;13.30;;;;;;;12.00;55.13;97747.94;10412802;28;19912;-51
2023/04/10 11:53:37;;;;;;;17.85;14.52;;;;;;;11.87;56.00;97755.81;10409219;28;20071;-50
2023/04/10 11:58:36;;;;;;;17.25;13.13;;;;;;;11.33;57.72;97757.81;10408108;28;20477;-51
2023/04/10 12:03:38;;;;;;;;;;;;;;;11.11;60.15;97759.63;10411728;28;20391;-51
2023/04/10 12:08:44;;;;;;;24.92;17.75;;;;;;;11.10;65.49;97757.91;10411326;28;19971;-49
2023/04/10 12:13:43;;;;;;;33.72;26.08;;;;;;;11.18;66.54;97742.31;10412222;28;20060;-51
2023/04/10 12:18:46;;;;;;;21.52;15.18;;;;;;;11.37;64.71;97737.91;10410507;28;20028;-51
2023/04/10 12:23:45;;;;;;;25.40;19.02;;;;;;;11.59;64.00;97729.09;10413292;28;20072;-51
2023/04/10 12:28:57;;;;;;;23.50;19.00;;;;;;;12.08;60.41;97725.34;10412476;28;20028;-51
2023/04/10 12:33:57;;;;;;;26.85;21.38;;;;;;;12.62;60.02;97702.34;10407886;28;20532;-52
2023/04/10 12:38:57;;;;;;;25.42;20.85;;;;;;;13.34;57.72;97690.22;10405001;28;20135;-51
2023/04/10 12:44:10;;;;;;;21.67;17.27;;;;;;;13.93;57.44;97683.31;10405071;28;20140;-51
2023/04/10 12:49:12;;;;;;;19.60;15.02;;;;;;;13.92;54.74;97663.34;10400975;28;20147;-51
2023/04/10 12:54:26;;;;;;;18.02;13.25;;;;;;;14.46;52.45;97662.44;10397971;28;20135;-51
2023/04/10 12:59:26;;;;;;;16.83;13.25;;;;;;;14.58;50.06;97651.75;10402958;28;20135;-51
2023/04/10 13:04:25;;;;;;;16.48;13.13;;;;;;;14.52;49.08;97651.91;10405646;28;20143;-52
2023/04/10 13:09:24;;;;;;;19.00;14.70;;;;;;;13.73;50.10;97672.34;10400629;28;20123;-51
2023/04/10 13:14:23;;;;;;;;;;;;;;;12.08;66.10;97707.97;10405887;28;20047;-51
2023/04/10 13:19:22;;;;;;;26.33;18.80;;;;;;;9.77;87.36;97707.84;10406794;28;19913;-50
2023/04/10 13:24:21;;;;;;;26.85;19.98;;;;;;;9.28;93.03;97689.59;10407217;28;20720;-51
2023/04/10 13:29:20;;;;;;;25.58;18.42;;;;;;;9.41;97.42;97693.06;10405158;28;20489;-52
2023/04/10 13:34:19;;;;;;;21.20;15.88;;;;;;;9.19;97.44;97688.66;10406359;28;20440;-49
2023/04/10 13:39:18;;;;;;;23.15;16.63;;;;;;;9.39;100.00;97673.22;10403710;28;20121;-50
2023/04/10 13:44:17;;;;;;;25.33;18.25;;;;;;;9.64;100.00;97684.50;10403139;28;20803;-51
2023/04/10 13:49:16;;;;;;;;;;;;;;;9.68;100.00;97692.28;10405235;28;20060;-49
2023/04/10 13:54:16;;;;;;;29.90;22.03;;;;;;;9.95;100.00;97681.06;10406170;28;20890;-48
2023/04/10 13:59:15;;;;;;;30.50;22.02;;;;;;;10.36;100.00;97671.53;10406008;28;20068;-51
2023/04/10 14:04:14;;;;;;;;;;;;;;;10.54;100.00;97665.44;10403061;28;20140;-50
2023/04/10 14:09:13;;;;;;;25.83;18.00;;;;;;;10.59;100.00;97649.00;10404733;28;19920;-51
2023/04/10 14:14:12;;;;;;;18.17;13.55;;;;;;;10.78;100.00;97634.22;10402366;28;20497;-50
2023/04/10 14:19:11;;;;;;;19.70;13.85;;;;;;;10.69;100.00;97633.41;10401540;28;20039;-49
2023/04/10 14:24:10;;;;;;;20.23;14.68;;;;;;;10.40;100.00;97626.53;10404390;28;20070;-49
2023/04/10 14:29:09;;;;;;;16.85;13.57;;;;;;;10.11;100.00;97621.44;10403754;28;20074;-50
2023/04/10 14:34:08;;;;;;;18.58;14.73;;;;;;;10.26;100.00;97615.34;10401274;28;20071;-50
2023/04/10 14:39:09;;;;;;;18.67;13.38;;;;;;;10.48;100.00;97617.03;10402414;28;20044;-49
2023/04/10 14:44:08;;;;;;;;;;;;;;;10.72;100.00;97612.63;10402807;28;20076;-48
2023/04/10 14:49:06;;;;;;;19.50;14.90;;;;;;;10.88;100.00;97608.28;10403270;28;19978;-48
2023/04/10 14:54:06;;;;;;;21.38;14.93;;;;;;;10.72;98.08;97602.25;10404053;28;20036;-50
2023/04/10 14:59:05;;;;;;;19.30;14.40;;;;;;;10.29;99.74;97572.13;10403883;28;20147;-50
2023/04/10 15:04:04;;;;;;;;;;;;;;;10.49;100.00;97587.59;10405523;28;20466;-48
2023/04/10 15:09:03;;;;;;;18.98;15.57;;;;;;;10.49;98.99;97603.19;10402694;28;20340;-49
2023/04/10 15:14:02;;;;;;;;;;;;;;;10.38;100.00;97610.16;10403910;28;20056;-50
2023/04/10 15:19:01;;;;;;;26.88;20.50;;;;;;;10.24;93.73;97632.63;10402159;28;19924;-47
2023/04/10 15:24:00;;;;;;;22.65;17.23;;;;;;;9.27;93.57;97664.50;10401364;28;20150;-52
2023/04/10 15:28:59;;;;;;;15.23;9.88;;;;;;;8.69;93.72;97628.06;10402347;28;20039;-49
2023/04/10 15:33:58;;;;;;;18.20;12.82;;;;;;;8.44;96.36;97615.03;10402017;28;20045;-46
2023/04/10 15:39:02;;;;;;;19.42;14.00;;;;;;;8.43;97.59;97613.28;10407179;28;20035;-50
2023/04/10 15:44:01;;;;;;;20.40;14.95;;;;;;;8.52;98.77;97620.25;10409499;28;20190;-49
2023/04/10 15:49:00;;;;;;;20.73;14.15;;;;;;;8.59;99.37;97619.41;10408823;28;20192;-52
2023/04/10 15:53:59;;;;;;;18.00;12.90;;;;;;;8.44;100.00;97596.94;10397779;28;20068;-49
2023/04/10 15:58:59;;;;;;;17.55;13.50;;;;;;;8.30;99.92;97554.63;10405994;28;20136;-50
2023/04/10 16:03:57;;;;;;;106.63;56.20;;;;;;;8.38;97.05;97611.53;10398750;28;20087;-49
2023/04/10 16:08:56;;;;;;;42.78;26.85;;;;;;;8.12;98.11;97624.31;10408985;28;20024;-51
2023/04/10 16:13:55;;;;;;;41.15;28.08;;;;;;;7.76;98.72;97628.38;10407615;28;20065;-49
2023/04/10 16:18:55;;;;;;;31.55;22.38;;;;;;;7.30;99.71;97610.72;10402862;28;20084;-48
2023/04/10 16:23:54;;;;;;;32.58;22.10;;;;;;;7.44;100.00;97613.47;10400414;28;20055;-48
2023/04/10 16:28:53;;;;;;;56.00;36.92;;;;;;;7.58;100.00;97614.44;10401842;28;20115;-49
2023/04/10 16:33:52;;;;;;;50.90;35.28;;;;;;;7.75;100.00;97613.72;10404081;28;20433;-49
2023/04/10 16:38:51;;;;;;;53.47;35.90;;;;;;;7.87;100.00;97618.97;10404635;28;20036;-49
2023/04/10 16:43:50;;;;;;;53.03;37.75;;;;;;;7.91;100.00;97623.31;10405349;28;20044;-50
2023/04/10 16:48:50;;;;;;;57.40;40.90;;;;;;;7.99;100.00;97626.84;10406269;28;20027;-51
2023/04/10 16:53:49;;;;;;;78.05;50.63;;;;;;;7.83;100.00;97628.44;10403483;28;20493;-51
2023/04/10 16:58:48;;;;;;;56.72;37.83;;;;;;;7.96;100.00;97629.38;10404586;28;20467;-50
2023/04/10 17:03:47;;;;;;;45.85;31.60;;;;;;;7.95;100.00;97632.81;10403771;28;20033;-51
2023/04/10 17:08:46;;;;;;;38.05;26.52;;;;;;;8.04;100.00;97632.03;10403660;28;20021;-52
2023/04/10 17:13:45;;;;;;;39.17;26.67;;;;;;;8.00;100.00;97644.06;10403804;28;20063;-52
2023/04/10 17:18:44;;;;;;;48.15;33.92;;;;;;;7.90;100.00;97681.03;10401576;28;20040;-51
2023/04/10 17:23:43;;;;;;;42.88;31.85;;;;;;;7.24;100.00;97672.59;10404334;28;20038;-49
2023/04/10 17:28:43;;;;;;;27.52;20.67;;;;;;;7.32;100.00;97706.25;10404994;28;20032;-48
2023/04/10 17:33:42;;;;;;;20.33;15.32;;;;;;;7.00;100.00;97705.00;10402040;28;20139;-49
2023/04/10 17:38:41;;;;;;;22.23;15.23;;;;;;;6.77;99.83;97688.38;10402853;28;20032;-48
2023/04/10 17:43:40;;;;;;;21.92;14.50;;;;;;;7.05;100.00;97694.75;10402775;28;20106;-47
2023/04/10 17:48:41;;;;;;;51.72;30.02;;;;;;;7.07;100.00;97689.59;10401252;28;20113;-48
2023/04/10 17:53:40;;;;;;;29.30;18.35;;;;;;;7.18;100.00;97688.88;10402235;28;20118;-50
2023/04/10 17:58:39;;;;;;;27.15;16.65;;;;;;;7.19;100.00;97675.16;10401407;28;20580;-52
2023/04/10 18:03:38;;;;;;;23.92;16.45;;;;;;;7.16;100.00;97667.34;10402511;28;20149;-51
2023/04/10 18:08:37;;;;;;;26.13;17.52;;;;;;;7.06;100.00;97642.31;10401533;28;20115;-51
2023/04/10 18:13:36;;;;;;;25.80;18.30;;;;;;;7.43;100.00;97684.88;10401622;28;20046;-52
2023/04/10 18:18:35;;;;;;;24.85;17.38;;;;;;;7.47;100.00;97692.66;10401832;28;20490;-51
2023/04/10 18:23:34;;;;;;;37.53;26.73;;;;;;;7.49;100.00;97714.19;10400353;28;20064;-51
2023/04/10 18:28:35;;;;;;;35.58;26.02;;;;;;;7.54;100.00;97717.69;10401093;28;20028;-49
2023/04/10 18:33:34;;;;;;;35.28;23.60;;;;;;;7.56;100.00;97691.03;10399885;28;20079;-49
2023/04/10 18:38:33;;;;;;;37.67;26.05;;;;;;;7.57;100.00;97671.22;10404637;28;20036;-52
2023/04/10 18:43:32;;;;;;;34.13;22.63;;;;;;;7.60;100.00;97669.56;10380189;28;20518;-51
2023/04/10 18:48:33;;;;;;;33.63;22.27;;;;;;;7.55;100.00;97662.63;10403459;28;20099;-49
2023/04/10 18:53:32;;;;;;;29.85;21.25;;;;;;;7.73;100.00;97680.84;10403771;28;20064;-50
2023/04/10 18:58:31;;;;;;;37.92;23.60;;;;;;;7.80;100.00;97681.78;10403147;28;20099;-51
2023/04/10 19:03:30;;;;;;;47.92;31.88;;;;;;;7.56;100.00;97630.78;10403414;28;20060;-51
2023/04/10 19:08:29;;;;;;;55.33;36.08;;;;;;;7.59;100.00;97675.59;10402171;28;20044;-52
2023/04/10 19:13:28;;;;;;;;;;;;;;;7.32;100.00;97676.13;10411245;28;20498;-50
2023/04/10 19:18:27;;;;;;;40.40;26.95;;;;;;;6.92;100.00;97636.13;10411512;28;20378;-52
2023/04/10 19:23:26;;;;;;;45.63;32.22;;;;;;;7.16;100.00;97685.41;10410959;28;20047;-50
2023/04/10 19:28:25;;;;;;;39.03;26.77;;;;;;;7.00;100.00;97673.19;10410375;28;20124;-50
2023/04/10 19:33:24;;;;;;;;;;;;;;;7.13;100.00;97672.47;10411592;28;20513;-52
2023/04/10 19:38:23;;;;;;;41.85;28.30;;;;;;;7.30;100.00;97666.63;10408233;28;20420;-51
2023/04/10 19:43:22;;;;;;;40.35;27.02;;;;;;;7.43;100.00;97658.22;10407228;28;20040;-51
2023/04/10 19:48:21;;;;;;;46.33;29.00;;;;;;;7.54;100.00;97671.22;10405858;28;20583;-50
2023/04/10 19:53:19;;;;;;;47.35;30.52;;;;;;;7.55;100.00;97652.31;10405496;28;20032;-52
2023/04/10 19:58:18;;;;;;;51.03;32.47;;;;;;;7.52;100.00;97647.97;10405942;28;20048;-50
2023/04/10 20:03:25;;;;;;;52.83;33.63;;;;;;;7.53;100.00;97647.09;10405271;28;20056;-49
2023/04/10 20:08:24;;;;;;;82.53;49.83;;;;;;;7.38;100.00;97640.06;10405212;28;20060;-52
2023/04/10 20:13:23;;;;;;;63.83;42.03;;;;;;;7.36;100.00;97641.75;10405815;28;20040;-51
2023/04/10 20:18:22;;;;;;;76.20;49.28;;;;;;;7.37;100.00;97642.63;10404777;28;20543;-51
2023/04/10 20:23:21;;;;;;;74.90;49.50;;;;;;;7.38;100.00;97628.84;10406733;28;20032;-50
2023/04/10 20:28:20;;;;;;;76.57;47.70;;;;;;;7.38;100.00;97634.00;10406466;28;20414;-52
2023/04/10 20:33:18;;;;;;;65.05;43.58;;;;;;;7.31;100.00;97609.88;10405813;28;20048;-52
2023/04/10 20:38:17;;;;;;;69.47;46.65;;;;;;;7.19;100.00;97574.50;10403602;28;20480;-50
2023/04/10 20:43:17;;;;;;;71.13;47.28;;;;;;;7.45;100.00;97622.91;10405426;28;20040;-50
2023/04/10 20:48:16;;;;;;;68.95;41.85;;;;;;;7.17;100.00;97593.38;10405105;28;20067;-50
2023/04/10 20:53:15;;;;;;;53.03;33.15;;;;;;;7.30;100.00;97612.44;10405454;28;20132;-52
2023/04/10 20:58:14;;;;;;;;;;;;;;;7.34;100.00;97611.63;10405817;28;20048;-52
2023/04/10 21:03:13;;;;;;;57.35;35.15;;;;;;;7.35;100.00;97603.00;10404428;28;19943;-50
2023/04/10 21:08:13;;;;;;;57.65;36.10;;;;;;;7.44;100.00;97608.28;10403852;28;20123;-51
2023/04/10 21:13:13;;;;;;;58.10;36.35;;;;;;;7.49;100.00;97601.44;10404189;28;20247;-49
2023/04/10 21:18:12;;;;;;;56.35;35.92;;;;;;;7.33;100.00;97627.94;10403843;28;20437;-50
2023/04/10 21:23:11;;;;;;;52.60;34.42;;;;;;;6.58;100.00;97659.75;10405424;28;20186;-51
2023/04/10 21:28:10;;;;;;;62.40;37.90;;;;;;;6.53;100.00;97645.09;10404947;28;20047;-49
2023/04/10 21:33:09;;;;;;;43.75;29.65;;;;;;;6.56;100.00;97627.97;10402252;28;20422;-52
2023/04/10 21:38:08;;;;;;;33.55;21.70;;;;;;;6.68;100.00;97647.00;10403392;28;20393;-50
2023/04/10 21:43:07;;;;;;;31.38;21.48;;;;;;;6.85;100.00;97635.19;10402874;28;20070;-52
2023/04/10 21:48:06;;;;;;;31.30;20.27;;;;;;;7.04;100.00;97623.34;10402778;28;20068;-50
2023/04/10 21:53:05;;;;;;;34.33;22.52;;;;;;;7.10;100.00;97602.78;10403031;28;20138;-52
2023/04/10 21:58:04;;;;;;;38.10;24.38;;;;;;;7.28;100.00;97606.38;10401897;28;20058;-50
2023/04/10 22:03:03;;;;;;;36.15;23.42;;;;;;;7.40;100.00;97591.03;10402230;28;20071;-51
2023/04/10 22:08:02;;;;;;;34.85;23.25;;;;;;;7.28;100.00;97568.53;10401297;28;20114;-51
2023/04/10 22:13:01;;;;;;;34.67;22.02;;;;;;;7.38;100.00;97585.84;10396248;28;20044;-52
2023/04/10 22:18:00;;;;;;;28.08;20.70;;;;;;;7.48;100.00;97584.25;10391511;28;20052;-52
2023/04/10 22:23:02;;;;;;;30.30;22.55;;;;;;;7.49;100.00;97579.94;10403835;28;20127;-52
2023/04/10 22:28:01;;;;;;;40.95;27.75;;;;;;;7.52;100.00;97583.41;10400986;28;20151;-52
2023/04/10 22:33:00;;;;;;;39.45;27.05;;;;;;;7.45;99.87;97586.78;10402924;28;20139;-52
2023/04/10 22:38:02;;;;;;;35.78;24.95;;;;;;;7.19;100.00;97577.06;10400587;28;20040;-53
2023/04/10 22:43:01;;;;;;;32.75;21.85;;;;;;;7.01;100.00;97571.72;10403130;28;20127;-53
2023/04/10 22:48:00;;;;;;;33.20;20.00;;;;;;;6.93;100.00;97568.19;10404842;28;20037;-52
2023/04/10 22:52:59;;;;;;;;;;;;;;;6.76;100.00;97568.03;10404934;28;20071;-53
2023/04/10 22:57:58;;;;;;;32.70;21.40;;;;;;;6.73;100.00;97566.28;10404917;28;19944;-53
2023/04/10 23:02:56;;;;;;;37.42;24.55;;;;;;;6.76;100.00;97575.75;10404982;28;20123;-53
2023/04/10 23:07:56;;;;;;;40.35;26.77;;;;;;;6.89;100.00;97561.25;10404560;28;20128;-52